Time;durP1;ratioP1;P1;durP2;ratioP2;P2;SDS_P1;SDS_P2;PMS_P1;PMS_P2;Temp;Humidity;BMP_temperature;BMP_pressure;BME280_temperature;BME280_humidity;BME280_pressure;Samples;Min_cycle;Max_cycle;Signal;HPM_P1;HPM_P2
2021/04/23 00:00:49;;;;;;;4.67;2.60;;;8.90;1.00;;;;;;5071901;28;20192;-57
2021/04/23 00:03:18;;;;;;;8.93;3.57;;;8.80;1.00;;;;;;5077173;28;20912;-58
2021/04/23 00:05:44;;;;;;;3.57;1.90;;;8.80;1.00;;;;;;5083811;28;20469;-58
2021/04/23 00:08:11;;;;;;;5.00;2.30;;;8.80;1.00;;;;;;5077520;28;21420;-56
2021/04/23 00:10:37;;;;;;;6.30;2.77;;;8.70;1.00;;;;;;5072428;28;20537;-57
2021/04/23 00:13:03;;;;;;;5.97;3.60;;;8.80;1.00;;;;;;5074361;28;20533;-58
2021/04/23 00:15:29;;;;;;;4.53;2.63;;;8.70;1.00;;;;;;5071999;28;20673;-58
2021/04/23 00:17:55;;;;;;;7.87;2.70;;;8.70;1.00;;;;;;5070442;28;20438;-57
2021/04/23 00:20:26;;;;;;;6.03;2.37;;;8.70;1.00;;;;;;5066524;28;20847;-57
2021/04/23 00:22:54;;;;;;;5.03;2.77;;;8.70;1.00;;;;;;5075251;28;20864;-57
2021/04/23 00:25:26;;;;;;;4.33;2.93;;;8.60;1.00;;;;;;5084366;28;21032;-58
2021/04/23 00:27:53;;;;;;;8.30;3.57;;;8.70;1.00;;;;;;5070749;28;20518;-57
2021/04/23 00:30:21;;;;;;;5.50;3.20;;;8.60;1.00;;;;;;5072548;28;20462;-57
2021/04/23 00:32:54;;;;;;;4.33;2.30;;;8.60;1.00;;;;;;5068373;28;20453;-57
2021/04/23 00:35:22;;;;;;;3.97;2.77;;;8.60;1.00;;;;;;5071199;28;20477;-57
2021/04/23 00:37:49;;;;;;;7.40;3.23;;;8.60;1.00;;;;;;5068744;28;20950;-58
2021/04/23 00:40:18;;;;;;;5.20;2.83;;;8.60;1.00;;;;;;5078059;28;20436;-57
2021/04/23 00:42:44;;;;;;;8.00;2.57;;;8.60;1.00;;;;;;5088881;28;20486;-57
2021/04/23 00:45:13;;;;;;;10.77;2.67;;;8.40;1.00;;;;;;5084819;28;20982;-56
2021/04/23 00:47:39;;;;;;;6.67;2.67;;;8.30;1.00;;;;;;5070987;28;20184;-56
2021/04/23 00:50:06;;;;;;;7.67;3.30;;;8.30;1.00;;;;;;5075206;28;20455;-58
2021/04/23 00:52:31;;;;;;;4.47;2.30;;;8.20;1.00;;;;;;5081025;28;20194;-57
2021/04/23 00:54:57;;;;;;;3.60;2.20;;;11.50;1.00;;;;;;5075334;28;20466;-57
2021/04/23 00:57:23;;;;;;;4.10;2.20;;;8.20;1.00;;;;;;5078175;28;20798;-56
2021/04/23 00:59:48;;;;;;;5.20;2.43;;;8.20;1.00;;;;;;5079567;28;20218;-58
2021/04/23 01:02:15;;;;;;;5.40;2.83;;;8.20;1.00;;;;;;5074037;28;20186;-56
2021/04/23 01:04:42;;;;;;;6.20;3.20;;;8.20;1.00;;;;;;5072407;28;20211;-57
2021/04/23 01:07:07;;;;;;;8.47;3.43;;;8.10;1.00;;;;;;5067700;28;20528;-57
2021/04/23 01:09:33;;;;;;;6.13;2.80;;;8.00;1.00;;;;;;5074125;28;20995;-57
2021/04/23 01:12:00;;;;;;;4.13;3.23;;;8.00;1.00;;;;;;5073114;28;20198;-57
2021/04/23 01:14:27;;;;;;;6.13;2.47;;;7.90;1.00;;;;;;5072723;28;20226;-58
2021/04/23 01:16:53;;;;;;;4.07;2.87;;;7.80;1.00;;;;;;5077047;28;20471;-57
2021/04/23 01:19:22;;;;;;;7.37;3.20;;;7.80;1.00;;;;;;5081525;28;20442;-57
2021/04/23 01:21:49;;;;;;;7.37;3.20;;;7.70;1.00;;;;;;5080332;28;20428;-57
2021/04/23 01:24:15;;;;;;;11.03;3.80;;;7.60;1.00;;;;;;5075854;28;20487;-58
2021/04/23 01:26:44;;;;;;;5.10;3.30;;;7.50;1.00;;;;;;5074635;28;20527;-56
2021/04/23 01:29:11;;;;;;;7.03;3.10;;;7.50;1.00;;;;;;5080103;28;20991;-57
2021/04/23 01:31:40;;;;;;;5.10;2.80;;;7.60;1.00;;;;;;5087440;28;20897;-56
2021/04/23 01:34:12;;;;;;;8.10;3.20;;;7.50;1.00;;;;;;5070484;28;20425;-58
2021/04/23 01:36:42;;;;;;;4.33;3.30;;;7.40;1.00;;;;;;5072890;28;20480;-57
2021/04/23 01:39:12;;;;;;;3.50;2.63;;;7.20;1.00;;;;;;5072788;28;20556;-57
2021/04/23 01:41:38;;;;;;;4.57;2.40;;;7.20;1.00;;;;;;5066376;28;20449;-57
2021/04/23 01:44:05;;;;;;;8.67;3.70;;;7.10;1.00;;;;;;5087726;28;20490;-56
2021/04/23 01:46:33;;;;;;;4.90;2.90;;;7.20;1.00;;;;;;5076598;28;20918;-56
2021/04/23 01:49:09;;;;;;;6.10;2.90;;;7.20;1.00;;;;;;5085094;28;20452;-57
2021/04/23 01:51:34;;;;;;;5.87;2.90;;;7.10;1.00;;;;;;5088359;28;20486;-58
2021/04/23 01:54:00;;;;;;;10.10;3.50;;;7.10;1.00;;;;;;5070299;28;20425;-58
2021/04/23 01:56:26;;;;;;;6.30;3.43;;;7.10;1.00;;;;;;5079498;28;20261;-58
2021/04/23 01:58:51;;;;;;;5.63;3.57;;;7.00;1.00;;;;;;5075008;28;20634;-57
2021/04/23 02:01:17;;;;;;;7.13;3.27;;;7.00;1.00;;;;;;5079646;28;20167;-57
2021/04/23 02:03:43;;;;;;;7.30;3.20;;;7.00;1.00;;;;;;5087346;28;20261;-56
2021/04/23 02:06:09;;;;;;;6.23;3.67;;;7.00;1.00;;;;;;5082588;28;20441;-58
2021/04/23 02:08:36;;;;;;;8.50;3.93;;;7.00;1.00;;;;;;5074281;28;20457;-57
2021/04/23 02:11:11;;;;;;;6.50;3.00;;;6.90;1.00;;;;;;5077153;28;20284;-58
2021/04/23 02:13:38;;;;;;;7.60;3.47;;;6.90;1.00;;;;;;5087187;28;20472;-56
2021/04/23 02:16:06;;;;;;;4.93;3.07;;;7.00;1.00;;;;;;5076397;28;20468;-57
2021/04/23 02:18:31;;;;;;;5.67;2.77;;;6.90;1.00;;;;;;5076252;28;20426;-58
2021/04/23 02:20:57;;;;;;;6.20;4.30;;;6.70;1.00;;;;;;5073697;28;20464;-57
2021/04/23 02:23:23;;;;;;;13.07;4.57;;;6.80;1.00;;;;;;5076320;28;20256;-57
2021/04/23 02:25:50;;;;;;;6.93;4.20;;;6.70;1.00;;;;;;5072071;28;20184;-57
2021/04/23 02:28:17;;;;;;;7.60;3.60;;;6.60;1.00;;;;;;5081496;28;20219;-57
2021/04/23 02:30:53;;;;;;;5.20;3.80;;;6.50;1.00;;;;;;5082135;28;20456;-56
2021/04/23 02:33:22;;;;;;;7.10;4.00;;;6.50;1.00;;;;;;5075492;28;20441;-57
2021/04/23 02:35:48;;;;;;;4.53;3.50;;;6.40;1.00;;;;;;5072586;28;20569;-58
2021/04/23 02:38:14;;;;;;;5.43;3.93;;;6.40;1.00;;;;;;5077432;28;20453;-57
2021/04/23 02:40:40;;;;;;;6.50;3.80;;;6.40;1.00;;;;;;5078341;28;20426;-57
2021/04/23 02:43:13;;;;;;;10.03;3.93;;;6.40;1.00;;;;;;5077355;28;20190;-58
2021/04/23 02:45:40;;;;;;;9.40;4.10;;;6.40;1.00;;;;;;5080180;28;20183;-57
2021/04/23 02:48:07;;;;;;;6.50;4.03;;;6.30;1.00;;;;;;5077861;28;20456;-57
2021/04/23 02:50:34;;;;;;;9.13;4.23;;;6.30;1.00;;;;;;5074371;28;20584;-58
2021/04/23 02:53:01;;;;;;;9.60;4.67;;;6.30;1.00;;;;;;5080095;28;20437;-58
2021/04/23 02:55:26;;;;;;;8.00;4.00;;;6.40;1.00;;;;;;5072942;28;20544;-57
2021/04/23 02:57:58;;;;;;;7.50;4.27;;;6.40;1.00;;;;;;5072656;28;20587;-56
2021/04/23 03:00:26;;;;;;;11.30;5.00;;;6.30;1.00;;;;;;5085865;28;20171;-57
2021/04/23 03:02:52;;;;;;;10.50;4.70;;;6.30;1.00;;;;;;5086607;28;20425;-56
2021/04/23 03:05:19;;;;;;;14.03;5.53;;;6.20;1.00;;;;;;5079294;28;20772;-58
2021/04/23 03:07:45;;;;;;;7.70;4.63;;;6.20;1.00;;;;;;5070454;28;20191;-57
2021/04/23 03:10:11;;;;;;;8.20;4.77;;;6.20;1.00;;;;;;5078566;28;20462;-57
2021/04/23 03:12:37;;;;;;;8.47;4.43;;;6.20;1.00;;;;;;5090656;28;20198;-56
2021/04/23 03:15:06;;;;;;;7.57;4.40;;;6.10;1.00;;;;;;5073120;28;20456;-57
2021/04/23 03:17:32;;;;;;;7.70;4.47;;;6.10;1.00;;;;;;5086953;28;20190;-56
2021/04/23 03:19:57;;;;;;;8.23;4.00;;;6.10;1.00;;;;;;5077716;28;20417;-58
2021/04/23 03:22:23;;;;;;;5.33;4.27;;;6.20;1.00;;;;;;5077657;28;20195;-57
2021/04/23 03:24:48;;;;;;;5.70;4.50;;;6.10;1.00;;;;;;5089408;28;20229;-59
2021/04/23 03:27:14;;;;;;;12.60;4.90;;;6.00;1.00;;;;;;5084664;28;20225;-58
2021/04/23 03:29:40;;;;;;;8.63;4.50;;;6.10;1.00;;;;;;5081021;28;20280;-56
2021/04/23 03:32:06;;;;;;;6.50;4.53;;;6.00;1.00;;;;;;5081426;28;20195;-57
2021/04/23 03:34:31;;;;;;;10.50;4.43;;;6.00;1.00;;;;;;5090279;28;20953;-56
2021/04/23 03:36:57;;;;;;;14.83;6.43;;;;;;;;;;5085106;28;20662;-56
2021/04/23 03:39:23;;;;;;;9.33;4.67;;;6.10;1.00;;;;;;5066215;28;20775;-57
2021/04/23 03:41:48;;;;;;;6.90;4.23;;;6.10;1.00;;;;;;5079712;28;20501;-56
2021/04/23 03:44:14;;;;;;;8.10;5.63;;;6.10;1.00;;;;;;5077925;28;20649;-57
2021/04/23 03:46:39;;;;;;;15.20;5.40;;;6.10;1.00;;;;;;5080860;28;20649;-57
2021/04/23 03:49:05;;;;;;;8.93;5.40;;;6.10;1.00;;;;;;5076549;28;20224;-57
2021/04/23 03:51:31;;;;;;;7.33;4.77;;;6.10;1.00;;;;;;5073904;28;20182;-58
2021/04/23 03:53:56;;;;;;;7.30;4.67;;;6.00;1.00;;;;;;5086051;28;20653;-56
2021/04/23 03:56:22;;;;;;;15.40;5.80;;;6.00;1.00;;;;;;5070425;28;20703;-57
2021/04/23 03:58:49;;;;;;;11.80;5.20;;;6.00;1.00;;;;;;5080529;28;20230;-58
2021/04/23 04:01:18;;;;;;;7.90;4.70;;;6.00;1.00;;;;;;5074074;28;20179;-56
2021/04/23 04:03:45;;;;;;;11.70;5.20;;;6.10;1.00;;;;;;5071347;28;20465;-58
2021/04/23 04:06:11;;;;;;;7.13;5.00;;;6.20;1.00;;;;;;5082459;28;20448;-56
2021/04/23 04:08:37;;;;;;;7.90;4.60;;;6.30;1.00;;;;;;5070289;28;20457;-56
2021/04/23 04:11:04;;;;;;;9.00;5.80;;;6.20;1.00;;;;;;5076101;28;20432;-55
2021/04/23 04:13:30;;;;;;;7.50;5.17;;;6.20;1.00;;;;;;5080438;28;20465;-56
2021/04/23 04:15:56;;;;;;;10.27;5.57;;;6.10;1.00;;;;;;5071587;28;20887;-55
2021/04/23 04:18:22;;;;;;;9.50;5.30;;;6.10;1.00;;;;;;5071445;28;20452;-55
2021/04/23 04:20:50;;;;;;;13.77;5.33;;;6.40;1.00;;;;;;5080560;28;20764;-56
2021/04/23 04:23:17;;;;;;;15.90;6.70;;;6.40;1.00;;;;;;5083605;28;20505;-57
2021/04/23 04:25:49;;;;;;;10.43;5.50;;;6.50;1.00;;;;;;5077305;28;20444;-57
2021/04/23 04:28:14;;;;;;;12.40;5.47;;;6.60;1.00;;;;;;5075938;28;20567;-57
2021/04/23 04:30:41;;;;;;;9.90;5.33;;;6.60;1.00;;;;;;5080611;28;20528;-57
2021/04/23 04:33:09;;;;;;;8.50;5.80;;;6.60;1.00;;;;;;5085485;28;20194;-56
2021/04/23 04:35:34;;;;;;;13.53;6.17;;;6.70;1.00;;;;;;5086200;28;20472;-57
2021/04/23 04:38:01;;;;;;;10.33;4.87;;;6.70;1.00;;;;;;5075782;28;20446;-56
2021/04/23 04:40:29;;;;;;;9.20;4.17;;;6.70;1.00;;;;;;5074874;28;20286;-56
2021/04/23 04:42:55;;;;;;;9.57;5.53;;;6.70;1.00;;;;;;5085826;28;20631;-57
2021/04/23 04:45:24;;;;;;;10.50;5.30;;;6.70;1.00;;;;;;5082602;28;20957;-57
2021/04/23 04:47:51;;;;;;;12.63;6.30;;;6.70;1.00;;;;;;5068940;28;20445;-57
2021/04/23 04:50:24;;;;;;;11.43;6.53;;;6.60;1.00;;;;;;5084333;28;20495;-57
2021/04/23 04:52:50;;;;;;;8.50;5.27;;;6.70;1.00;;;;;;5076501;28;20448;-58
2021/04/23 04:55:16;;;;;;;10.83;5.90;;;6.70;1.00;;;;;;5090111;28;20459;-57
2021/04/23 04:57:42;;;;;;;10.77;5.37;;;6.50;1.00;;;;;;5077223;28;20184;-57
2021/04/23 05:00:09;;;;;;;10.00;5.70;;;6.50;1.00;;;;;;5075312;28;20210;-57
2021/04/23 05:02:36;;;;;;;8.67;5.40;;;6.50;1.00;;;;;;5076213;28;20487;-56
2021/04/23 05:05:03;;;;;;;10.30;5.60;;;6.60;1.00;;;;;;5073218;28;20545;-57
2021/04/23 05:07:29;;;;;;;24.33;11.30;;;6.70;1.00;;;;;;5082384;28;20471;-56
2021/04/23 05:09:55;;;;;;;10.40;5.87;;;6.70;1.00;;;;;;5070431;28;20461;-55
2021/04/23 05:12:20;;;;;;;12.80;6.00;;;6.70;1.00;;;;;;5069093;28;20515;-57
2021/04/23 05:14:46;;;;;;;12.53;6.50;;;6.80;1.00;;;;;;5081608;28;20246;-57
2021/04/23 05:17:11;;;;;;;13.00;6.17;;;6.80;1.00;;;;;;5078683;28;20187;-58
2021/04/23 05:19:37;;;;;;;12.93;5.53;;;;;;;;;;5084024;28;20182;-56
2021/04/23 05:22:05;;;;;;;11.33;5.93;;;6.90;1.00;;;;;;5069697;28;20211;-56
2021/04/23 05:24:31;;;;;;;11.90;5.73;;;6.90;1.00;;;;;;5069683;28;21242;-57
2021/04/23 05:26:57;;;;;;;9.87;5.00;;;7.00;1.00;;;;;;5074192;28;20443;-56
2021/04/23 05:29:22;;;;;;;8.50;5.93;;;7.10;1.00;;;;;;5067870;28;20230;-56
2021/04/23 05:31:48;;;;;;;13.80;7.50;;;6.90;1.00;;;;;;5078047;28;20248;-57
2021/04/23 05:34:13;;;;;;;8.53;5.50;;;6.90;1.00;;;;;;5079673;28;20671;-57
2021/04/23 05:36:39;;;;;;;9.70;6.20;;;6.90;1.00;;;;;;5079913;28;20182;-56
2021/04/23 05:39:05;;;;;;;16.40;5.80;;;7.00;1.00;;;;;;5082000;28;20183;-57
2021/04/23 05:41:30;;;;;;;15.13;5.90;;;7.10;1.00;;;;;;5079069;28;20210;-56
2021/04/23 05:43:56;;;;;;;12.73;6.20;;;7.10;1.00;;;;;;5066161;28;20253;-57
2021/04/23 05:46:22;;;;;;;9.80;6.20;;;7.30;1.00;;;;;;5078864;28;20198;-57
2021/04/23 05:48:48;;;;;;;8.77;5.60;;;7.30;1.00;;;;;;5073271;28;20190;-57
2021/04/23 05:51:15;;;;;;;15.00;5.90;;;7.40;1.00;;;;;;5078590;28;20187;-57
2021/04/23 05:53:41;;;;;;;9.00;5.33;;;7.30;1.00;;;;;;5075172;28;20506;-58
2021/04/23 05:56:06;;;;;;;15.23;7.00;;;7.50;1.00;;;;;;5080372;28;20457;-57
2021/04/23 05:58:32;;;;;;;9.17;5.17;;;7.40;1.00;;;;;;5081708;28;20906;-58
2021/04/23 06:00:58;;;;;;;13.70;5.37;;;7.60;1.00;;;;;;5083447;28;20191;-57
2021/04/23 06:03:24;;;;;;;11.03;5.47;;;7.60;1.00;;;;;;5081787;28;20182;-57
2021/04/23 06:05:49;;;;;;;13.40;5.63;;;7.60;1.00;;;;;;5072055;28;20183;-57
2021/04/23 06:08:15;;;;;;;8.97;5.10;;;7.70;1.00;;;;;;5070255;28;20176;-57
2021/04/23 06:10:46;;;;;;;10.30;4.70;;;7.60;1.00;;;;;;5087055;28;20206;-57
2021/04/23 06:13:13;;;;;;;14.80;6.07;;;7.50;1.00;;;;;;5076795;28;20206;-57
2021/04/23 06:15:38;;;;;;;11.80;6.40;;;7.50;1.00;;;;;;5073589;28;20627;-57
2021/04/23 06:18:04;;;;;;;11.40;5.67;;;7.50;1.00;;;;;;5073751;28;20513;-57
2021/04/23 06:20:32;;;;;;;7.77;5.13;;;7.60;1.00;;;;;;5078347;28;20176;-57
2021/04/23 06:23:00;;;;;;;17.40;5.70;;;7.70;1.00;;;;;;5071272;28;20452;-57
2021/04/23 06:25:26;;;;;;;15.80;6.77;;;7.90;1.00;;;;;;5080182;28;20456;-58
2021/04/23 06:27:53;;;;;;;12.40;5.90;;;8.00;1.00;;;;;;5069836;28;20469;-56
2021/04/23 06:30:22;;;;;;;8.53;5.53;;;7.90;1.00;;;;;;5066896;28;21017;-57
2021/04/23 06:32:48;;;;;;;10.80;6.20;;;7.80;1.00;;;;;;5079000;28;20882;-57
2021/04/23 06:35:19;;;;;;;14.67;5.90;;;7.90;1.00;;;;;;5071161;28;20823;-57
2021/04/23 06:37:53;;;;;;;11.50;5.70;;;7.80;1.00;;;;;;5085888;28;20436;-58
2021/04/23 06:40:19;;;;;;;11.77;5.47;;;7.70;1.00;;;;;;5067881;28;20437;-57
2021/04/23 06:42:45;;;;;;;9.13;5.63;;;7.70;1.00;;;;;;5074606;28;20437;-59
2021/04/23 06:45:15;;;;;;;12.87;6.77;;;7.70;1.00;;;;;;5068920;28;20450;-57
2021/04/23 06:47:42;;;;;;;9.77;4.90;;;7.70;1.00;;;;;;5067703;28;20188;-58
2021/04/23 06:50:12;;;;;;;15.17;5.23;;;7.70;1.00;;;;;;5067764;28;20446;-60
2021/04/23 06:52:39;;;;;;;12.00;5.87;;;7.70;1.00;;;;;;5071897;28;20454;-56
2021/04/23 06:55:07;;;;;;;14.43;6.50;;;7.80;1.00;;;;;;5069066;28;20560;-58
2021/04/23 06:57:33;;;;;;;14.97;5.17;;;7.80;1.00;;;;;;5077640;28;21037;-57
2021/04/23 06:59:58;;;;;;;10.67;4.70;;;7.70;1.00;;;;;;5076804;28;20533;-58
2021/04/23 07:02:24;;;;;;;7.23;5.57;;;7.90;1.00;;;;;;5070732;28;20183;-57
2021/04/23 07:04:50;;;;;;;10.00;5.73;;;8.20;1.00;;;;;;5077829;28;20673;-58
2021/04/23 07:07:15;;;;;;;9.10;5.50;;;8.30;1.00;;;;;;5080347;28;20288;-58
2021/04/23 07:09:41;;;;;;;5.00;3.70;;;8.50;1.00;;;;;;5072641;28;20237;-58
2021/04/23 07:12:07;;;;;;;9.80;5.00;;;8.60;1.00;;;;;;5088690;28;20790;-58
2021/04/23 07:14:32;;;;;;;9.00;5.10;;;8.80;1.00;;;;;;5075916;28;20249;-59
2021/04/23 07:16:58;;;;;;;9.37;5.30;;;9.10;1.00;;;;;;5077641;28;20437;-59
2021/04/23 07:19:24;;;;;;;10.23;4.80;;;9.00;1.00;;;;;;5073056;28;20187;-57
2021/04/23 07:21:49;;;;;;;8.00;4.73;;;9.00;1.00;;;;;;5073451;28;20228;-58
2021/04/23 07:24:15;;;;;;;8.33;4.97;;;;;;;;;;5070921;28;20186;-59
2021/04/23 07:26:41;;;;;;;8.90;3.90;;;9.20;1.00;;;;;;5072672;28;20271;-58
2021/04/23 07:29:06;;;;;;;6.97;5.10;;;9.30;1.00;;;;;;5072416;28;20479;-57
2021/04/23 07:31:32;;;;;;;5.53;3.77;;;9.20;1.00;;;;;;5070935;28;20210;-57
2021/04/23 07:33:59;;;;;;;8.80;4.00;;;9.20;1.00;;;;;;5070897;28;20277;-59
2021/04/23 07:36:24;;;;;;;6.10;3.80;;;9.30;1.00;;;;;;5072044;28;20212;-58
2021/04/23 07:38:50;;;;;;;8.77;4.83;;;9.30;1.00;;;;;;5072148;28;20528;-57
2021/04/23 07:41:15;;;;;;;8.90;3.53;;;9.20;1.00;;;;;;5073284;28;20262;-58
2021/04/23 07:43:41;;;;;;;5.60;3.83;;;9.00;1.00;;;;;;5068916;28;20295;-59
2021/04/23 07:46:07;;;;;;;7.60;3.27;;;9.10;1.00;;;;;;5071893;28;20196;-58
2021/04/23 07:48:33;;;;;;;5.90;3.23;;;9.60;1.00;;;;;;5070595;28;20629;-58
2021/04/23 07:50:58;;;;;;;6.97;3.60;;;9.70;1.00;;;;;;5081702;28;20206;-57
2021/04/23 07:53:25;;;;;;;6.47;4.10;;;9.90;1.00;;;;;;5071956;28;20438;-58
2021/04/23 07:55:51;;;;;;;5.00;3.50;;;9.80;1.00;;;;;;5071629;28;20209;-59
2021/04/23 07:58:16;;;;;;;7.77;6.73;;;9.70;1.00;;;;;;5071737;28;20601;-58
2021/04/23 08:00:42;;;;;;;10.43;4.60;;;9.90;1.00;;;;;;5072295;28;20915;-59
2021/04/23 08:03:08;;;;;;;7.93;3.87;;;9.80;1.00;;;;;;5066185;28;20200;-58
2021/04/23 08:05:34;;;;;;;6.67;3.57;;;9.60;1.00;;;;;;5078258;28;20192;-57
2021/04/23 08:08:02;;;;;;;5.20;3.80;;;9.60;1.00;;;;;;5084035;28;20197;-59
2021/04/23 08:10:28;;;;;;;6.27;4.10;;;10.00;1.00;;;;;;5070167;28;20536;-58
2021/04/23 08:12:54;;;;;;;6.97;3.90;;;10.00;1.00;;;;;;5078843;28;20445;-58
2021/04/23 08:15:24;;;;;;;5.17;2.73;;;9.80;1.00;;;;;;5083728;28;20477;-59
2021/04/23 08:17:50;;;;;;;7.30;3.70;;;9.80;1.00;;;;;;5078339;28;20521;-57
2021/04/23 08:20:16;;;;;;;4.90;3.80;;;9.90;1.00;;;;;;5080577;28;20440;-61
2021/04/23 08:22:42;;;;;;;3.93;3.10;;;10.00;1.00;;;;;;5067514;28;20471;-60
2021/04/23 08:25:09;;;;;;;5.80;3.17;;;10.10;1.00;;;;;;5069616;28;20456;-58
2021/04/23 08:27:35;;;;;;;2.73;2.03;;;10.20;1.00;;;;;;5069591;28;20442;-59
2021/04/23 08:30:06;;;;;;;7.13;3.13;;;10.00;1.00;;;;;;5074748;28;20438;-61
2021/04/23 08:32:31;;;;;;;4.70;2.70;;;9.90;1.00;;;;;;5070432;28;20444;-59
2021/04/23 08:34:57;;;;;;;4.60;3.10;;;9.90;1.00;;;;;;5070913;28;20464;-59
2021/04/23 08:37:22;;;;;;;4.90;3.37;;;9.80;1.00;;;;;;5071158;28;20284;-58
2021/04/23 08:39:48;;;;;;;6.73;3.40;;;9.70;1.00;;;;;;5071766;28;20181;-59
2021/04/23 08:42:14;;;;;;;8.30;2.93;;;9.50;1.00;;;;;;5069318;28;20271;-59
2021/04/23 08:44:39;;;;;;;5.67;2.77;;;9.50;1.00;;;;;;5070668;28;20549;-59
2021/04/23 08:47:05;;;;;;;4.77;3.10;;;9.60;1.00;;;;;;5071039;28;20189;-57
2021/04/23 08:49:32;;;;;;;4.97;2.57;;;9.50;1.00;;;;;;5070887;28;20191;-58
2021/04/23 08:52:00;;;;;;;4.33;2.60;;;9.50;1.00;;;;;;5070613;28;20444;-58
2021/04/23 08:54:25;;;;;;;5.23;2.80;;;9.60;1.00;;;;;;5069030;28;20453;-58
2021/04/23 08:56:51;;;;;;;6.00;3.27;;;9.70;1.00;;;;;;5077756;28;20456;-59
2021/04/23 08:59:17;;;;;;;3.80;2.87;;;9.80;1.00;;;;;;5090813;28;20179;-59
2021/04/23 09:01:44;;;;;;;6.63;3.40;;;10.00;1.00;;;;;;5075592;28;20436;-58
2021/04/23 09:04:11;;;;;;;4.90;2.53;;;10.20;1.00;;;;;;5076128;28;20480;-59
2021/04/23 09:06:36;;;;;;;7.90;3.60;;;10.50;1.00;;;;;;5070611;28;20526;-59
2021/04/23 09:09:07;;;;;;;6.00;3.20;;;10.40;1.00;;;;;;5070934;28;20441;-59
2021/04/23 09:11:36;;;;;;;4.57;3.07;;;10.30;1.00;;;;;;5067294;28;20184;-59
2021/04/23 09:14:11;;;;;;;6.03;2.80;;;10.10;1.00;;;;;;5070151;28;20958;-59
2021/04/23 09:16:42;;;;;;;4.43;2.77;;;10.00;1.00;;;;;;5078294;28;20488;-58
2021/04/23 09:19:15;;;;;;;6.60;3.20;;;10.80;1.00;;;;;;5068144;28;20427;-58
2021/04/23 09:21:58;;;;;;;6.97;3.00;;;10.30;1.00;;;;;;5069240;28;20438;-60
2021/04/23 09:24:33;;;;;;;5.87;3.20;;;10.30;1.00;;;;;;5081395;28;20978;-58
2021/04/23 09:27:07;;;;;;;4.90;3.10;;;10.20;1.00;;;;;;5090176;28;20932;-59
2021/04/23 09:29:35;;;;;;;4.20;2.93;;;10.20;1.00;;;;;;5068901;28;20506;-60
2021/04/23 09:32:10;;;;;;;7.57;3.57;;;10.30;1.00;;;;;;5078725;28;20430;-58
2021/04/23 09:34:50;;;;;;;4.20;2.87;;;10.40;1.00;;;;;;5078456;28;20444;-60
2021/04/23 09:37:16;;;;;;;6.90;2.87;;;10.60;1.00;;;;;;5067947;28;20447;-59
2021/04/23 09:39:43;;;;;;;7.13;3.50;;;10.20;1.00;;;;;;5070186;28;20750;-58
2021/04/23 09:42:11;;;;;;;4.20;2.40;;;10.60;1.00;;;;;;5068380;28;20865;-60
2021/04/23 09:44:41;;;;;;;3.23;2.33;;;10.60;1.00;;;;;;5069591;28;20443;-59
2021/04/23 09:47:11;;;;;;;4.40;2.83;;;10.80;1.00;;;;;;5070325;28;20451;-59
2021/04/23 09:49:37;;;;;;;4.17;2.67;;;10.90;1.00;;;;;;5069565;28;20443;-59
2021/04/23 09:52:05;;;;;;;6.03;2.73;;;10.80;1.00;;;;;;5070013;28;20791;-58
2021/04/23 09:54:32;;;;;;;5.93;3.27;;;10.60;1.00;;;;;;5068052;28;20471;-60
2021/04/23 09:56:58;;;;;;;5.30;3.40;;;10.60;1.00;;;;;;5070043;28;20837;-58
2021/04/23 09:59:26;;;;;;;6.03;3.60;;;9.90;1.00;;;;;;5068406;28;20431;-59
2021/04/23 10:01:54;;;;;;;9.30;3.70;;;10.60;1.00;;;;;;5080451;28;20182;-58
2021/04/23 10:04:23;;;;;;;6.07;3.80;;;11.00;1.00;;;;;;5077984;28;20601;-59
2021/04/23 10:07:06;;;;;;;8.53;3.77;;;11.10;1.00;;;;;;5078511;28;20428;-58
2021/04/23 10:09:53;;;;;;;5.03;3.70;;;11.00;1.00;;;;;;5068715;28;20441;-58
2021/04/23 10:12:45;;;;;;;6.40;3.37;;;10.90;1.00;;;;;;5067659;28;20446;-58
2021/04/23 10:15:24;;;;;;;6.00;3.60;;;10.50;1.00;;;;;;5064317;28;20463;-60
2021/04/23 10:17:53;;;;;;;6.07;3.53;;;10.60;1.00;;;;;;5068514;28;20527;-60
2021/04/23 10:20:22;;;;;;;7.03;4.43;;;10.70;1.00;;;;;;5070082;28;20429;-59
2021/04/23 10:22:49;;;;;;;6.43;3.30;;;10.60;1.00;;;;;;5087450;28;20432;-59
2021/04/23 10:25:15;;;;;;;6.07;3.43;;;10.80;1.00;;;;;;5068152;28;20596;-59
2021/04/23 10:27:43;;;;;;;8.03;3.60;;;10.90;1.00;;;;;;5067637;28;20476;-59
2021/04/23 10:30:11;;;;;;;4.87;3.23;;;10.70;1.00;;;;;;5067895;28;20448;-60
2021/04/23 10:32:38;;;;;;;8.00;4.00;;;;;;;;;;5071452;28;20815;-59
2021/04/23 10:35:04;;;;;;;3.73;3.20;;;10.60;1.00;;;;;;5073136;28;20464;-58
2021/04/23 10:37:30;;;;;;;5.50;3.30;;;10.40;1.00;;;;;;5073449;28;20790;-59
2021/04/23 10:39:56;;;;;;;5.73;4.07;;;10.40;1.00;;;;;;5073477;28;20931;-58
2021/04/23 10:42:51;;;;;;;8.90;4.10;;;10.50;1.00;;;;;;5072043;28;20448;-59
2021/04/23 10:45:24;;;;;;;9.30;3.87;;;10.70;1.00;;;;;;5073861;28;20448;-58
2021/04/23 10:47:52;;;;;;;5.60;3.50;;;10.80;1.00;;;;;;5073092;28;20811;-58
2021/04/23 10:50:20;;;;;;;9.43;4.17;;;10.40;1.00;;;;;;5092363;28;20904;-60
2021/04/23 10:53:06;;;;;;;5.37;3.03;;;10.30;1.00;;;;;;5072594;28;20453;-58
2021/04/23 10:55:45;;;;;;;7.90;4.00;;;10.20;1.00;;;;;;5073328;28;20469;-58
2021/04/23 10:58:26;;;;;;;5.40;3.00;;;10.10;1.00;;;;;;5073189;28;20435;-58
2021/04/23 11:00:56;;;;;;;4.80;3.73;;;10.10;1.00;;;;;;5072737;28;20443;-58
2021/04/23 11:03:33;;;;;;;5.10;3.30;;;10.10;1.00;;;;;;5071835;28;20440;-58
2021/04/23 11:06:25;;;;;;;11.63;3.70;;;10.20;1.00;;;;;;5069046;28;20476;-58
2021/04/23 11:09:12;;;;;;;7.90;3.67;;;10.20;1.00;;;;;;5071224;28;20486;-58
2021/04/23 11:11:40;;;;;;;7.70;3.40;;;10.00;1.00;;;;;;5072113;28;20454;-58
2021/04/23 11:14:28;;;;;;;6.50;3.87;;;10.00;1.00;;;;;;5085803;28;20471;-58
2021/04/23 11:17:15;;;;;;;6.20;4.10;;;10.10;1.00;;;;;;5072912;28;21015;-59
2021/04/23 11:19:41;;;;;;;7.30;4.43;;;10.00;1.00;;;;;;5072852;28;20438;-59
2021/04/23 11:22:10;;;;;;;9.43;5.13;;;10.00;1.00;;;;;;5069878;28;20439;-59
2021/04/23 11:24:36;;;;;;;6.23;4.27;;;11.70;1.00;;;;;;5072460;28;20434;-60
2021/04/23 11:27:04;;;;;;;9.03;5.13;;;10.00;1.00;;;;;;5072971;28;20436;-59
2021/04/23 11:29:39;;;;;;;4.53;4.13;;;10.00;1.00;;;;;;5072650;28;20572;-59
2021/04/23 11:32:16;;;;;;;12.30;5.13;;;10.10;1.00;;;;;;5070859;28;20514;-60
2021/04/23 11:34:47;;;;;;;5.10;4.23;;;10.40;1.00;;;;;;5071139;28;20501;-59
2021/04/23 11:37:14;;;;;;;9.33;5.03;;;10.80;1.00;;;;;;5072482;28;20463;-59
2021/04/23 11:39:46;;;;;;;8.40;4.43;;;10.90;1.00;;;;;;5072668;28;20447;-58
2021/04/23 11:42:18;;;;;;;10.57;5.67;;;10.90;1.00;;;;;;5070999;28;20948;-58
2021/04/23 11:44:46;;;;;;;7.70;4.60;;;10.70;1.00;;;;;;5072412;28;20437;-59
2021/04/23 11:47:14;;;;;;;10.20;4.80;;;10.60;1.00;;;;;;5086948;28;20459;-59
2021/04/23 11:49:40;;;;;;;7.77;4.30;;;10.80;1.00;;;;;;5078897;28;20848;-59
2021/04/23 11:52:05;;;;;;;7.83;4.20;;;11.10;1.00;;;;;;5071568;28;20445;-58
2021/04/23 11:54:38;;;;;;;7.60;5.30;;;11.10;1.00;;;;;;5071363;28;20444;-60
2021/04/23 11:57:09;;;;;;;7.23;5.23;;;11.20;1.00;;;;;;5070671;28;20188;-59
2021/04/23 11:59:35;;;;;;;8.80;4.90;;;11.20;1.00;;;;;;5071906;28;20439;-58
2021/04/23 12:02:01;;;;;;;11.20;5.10;;;11.40;1.00;;;;;;5071519;28;20460;-59
2021/04/23 12:04:46;;;;;;;5.70;5.13;;;11.50;1.00;;;;;;5075930;28;20441;-58
2021/04/23 12:07:13;;;;;;;8.10;5.23;;;11.40;1.00;;;;;;5072052;28;20270;-60
2021/04/23 12:09:41;;;;;;;13.70;5.10;;;11.40;1.00;;;;;;5071716;28;20437;-58
2021/04/23 12:12:12;;;;;;;8.37;4.80;;;11.50;1.00;;;;;;5071655;28;20491;-58
2021/04/23 12:14:47;;;;;;;9.97;5.23;;;11.60;1.00;;;;;;5071636;28;20530;-58
2021/04/23 12:17:14;;;;;;;6.20;4.30;;;11.50;1.00;;;;;;5071983;28;20489;-59
2021/04/23 12:19:40;;;;;;;11.30;5.13;;;11.50;1.00;;;;;;5070605;28;20510;-58
2021/04/23 12:22:06;;;;;;;8.70;5.60;;;10.90;1.00;;;;;;5071544;28;20451;-59
2021/04/23 12:24:32;;;;;;;8.53;5.53;;;10.90;1.00;;;;;;5079832;28;20439;-59
2021/04/23 12:26:57;;;;;;;8.13;4.87;;;11.00;1.00;;;;;;5073301;28;20203;-58
2021/04/23 12:29:25;;;;;;;9.43;5.43;;;11.50;1.00;;;;;;5071554;28;20215;-59
2021/04/23 12:31:51;;;;;;;11.27;5.10;;;11.60;1.00;;;;;;5077837;28;20194;-60
2021/04/23 12:34:16;;;;;;;10.00;4.67;;;11.50;1.00;;;;;;5071803;28;20460;-60
2021/04/23 12:36:47;;;;;;;7.40;5.23;;;11.40;1.00;;;;;;5070974;28;20538;-60
2021/04/23 12:39:23;;;;;;;8.87;5.30;;;11.30;1.00;;;;;;5071207;28;20451;-58
2021/04/23 12:41:54;;;;;;;6.43;4.73;;;11.20;1.00;;;;;;5070809;28;20439;-59
2021/04/23 12:44:24;;;;;;;7.07;5.40;;;10.90;1.00;;;;;;5071278;28;20440;-59
2021/04/23 12:46:57;;;;;;;8.63;5.57;;;10.90;1.00;;;;;;5069803;28;20483;-58
2021/04/23 12:49:25;;;;;;;6.27;4.83;;;11.10;1.00;;;;;;5071068;28;20522;-60
2021/04/23 12:52:02;;;;;;;8.13;5.13;;;11.10;1.00;;;;;;5068190;28;20440;-59
2021/04/23 12:54:37;;;;;;;8.27;5.57;;;11.60;1.00;;;;;;5071007;28;20522;-59
2021/04/23 12:57:09;;;;;;;9.10;5.43;;;11.60;1.00;;;;;;5070865;28;20488;-59
2021/04/23 12:59:49;;;;;;;7.43;4.70;;;11.60;1.00;;;;;;5071102;28;20470;-59
2021/04/23 13:02:21;;;;;;;6.70;4.97;;;11.70;1.00;;;;;;5067755;28;20818;-58
2021/04/23 13:04:48;;;;;;;9.93;6.20;;;12.10;1.00;;;;;;5070794;28;20969;-58
2021/04/23 13:07:17;;;;;;;5.77;4.90;;;12.30;1.00;;;;;;5070057;28;20446;-59